createdAt,value
2019-04-06T00:01:52.037Z,2.83
2019-04-06T00:04:24.101Z,4.27
2019-04-06T00:06:56.259Z,3.33
2019-04-06T00:09:28.393Z,3.13
2019-04-06T00:12:00.594Z,3.67
2019-04-06T00:14:33.122Z,3.27
2019-04-06T00:17:05.419Z,3.20
2019-04-06T00:19:37.636Z,3.33
2019-04-06T00:22:09.895Z,3.53
2019-04-06T00:24:42.061Z,3.43
2019-04-06T00:27:14.215Z,3.37
2019-04-06T00:29:46.385Z,4.33
2019-04-06T00:32:25.743Z,3.37
2019-04-06T00:34:57.845Z,4.00
2019-04-06T00:37:29.981Z,3.07
2019-04-06T00:40:02.152Z,2.70
2019-04-06T00:42:34.876Z,3.43
2019-04-06T00:45:10.344Z,3.53
2019-04-06T00:47:55.931Z,2.60
2019-04-06T00:50:24.757Z,2.63
2019-04-06T00:52:56.833Z,3.60
2019-04-06T00:55:28.995Z,2.43
2019-04-06T00:58:03.653Z,2.70
2019-04-06T01:00:36.050Z,2.27
2019-04-06T01:03:08.490Z,2.00
2019-04-06T01:05:41.167Z,2.67
2019-04-06T01:08:16.121Z,2.67
2019-04-06T01:10:48.646Z,2.77
2019-04-06T01:13:21.050Z,2.60
2019-04-06T01:15:59.058Z,2.80
2019-04-06T01:18:31.642Z,2.70
2019-04-06T01:21:03.750Z,2.47
2019-04-06T01:23:35.941Z,4.67
2019-04-06T01:26:08.165Z,3.47
2019-04-06T01:28:40.324Z,4.20
2019-04-06T01:31:12.401Z,4.53
2019-04-06T01:33:44.688Z,4.43
2019-04-06T01:36:16.926Z,3.97
2019-04-06T01:38:49.099Z,4.43
2019-04-06T01:41:21.279Z,4.77
2019-04-06T01:43:53.726Z,4.63
2019-04-06T01:46:25.839Z,3.80
2019-04-06T01:48:58.197Z,5.30
2019-04-06T01:51:30.336Z,3.33
2019-04-06T01:54:02.409Z,4.80
2019-04-06T01:56:34.614Z,4.90
2019-04-06T01:59:06.824Z,6.07
2019-04-06T02:01:44.013Z,5.63
2019-04-06T02:04:21.543Z,3.83
2019-04-06T02:06:54.008Z,3.43
2019-04-06T02:09:27.862Z,3.33
2019-04-06T02:12:00.918Z,3.47
2019-04-06T02:14:33.579Z,4.23
2019-04-06T02:17:06.686Z,4.10
2019-04-06T02:19:38.766Z,3.87
2019-04-06T02:22:10.755Z,4.10
2019-04-06T02:24:42.698Z,3.63
2019-04-06T02:27:14.674Z,4.27
2019-04-06T02:29:46.788Z,4.40
2019-04-06T02:32:30.729Z,4.53
2019-04-06T02:35:21.987Z,3.87
2019-04-06T02:38:13.564Z,5.03
2019-04-06T02:41:00.551Z,5.83
2019-04-06T02:43:34.397Z,10.00
2019-04-06T02:46:06.791Z,7.83
2019-04-06T02:48:39.308Z,5.73
2019-04-06T02:51:11.327Z,5.57
2019-04-06T02:53:43.707Z,5.33
2019-04-06T02:56:20.571Z,5.57
2019-04-06T02:58:52.752Z,6.23
2019-04-06T03:01:26.800Z,5.67
2019-04-06T03:04:02.357Z,5.43
2019-04-06T03:06:34.599Z,5.97
2019-04-06T03:09:11.021Z,6.40
2019-04-06T03:11:41.551Z,8.70
2019-04-06T03:14:13.830Z,9.17
2019-04-06T03:16:45.859Z,8.20
2019-04-06T03:19:17.907Z,9.30
2019-04-06T03:21:50.121Z,11.67
2019-04-06T03:24:22.230Z,11.10
2019-04-06T03:27:02.235Z,12.30
2019-04-06T03:29:28.025Z,9.23
2019-04-06T03:32:00.422Z,8.70
2019-04-06T03:34:32.617Z,7.80
2019-04-06T03:37:04.786Z,7.90
2019-04-06T03:39:37.110Z,8.10
2019-04-06T03:42:11.024Z,8.97
2019-04-06T03:44:44.038Z,6.70
2019-04-06T03:47:16.126Z,7.50
2019-04-06T03:49:48.410Z,7.67
2019-04-06T03:52:21.900Z,8.07
2019-04-06T03:54:54.129Z,7.40
2019-04-06T03:57:26.679Z,8.67
2019-04-06T03:59:59.362Z,11.73
2019-04-06T04:02:32.060Z,9.27
2019-04-06T04:05:04.396Z,8.50
2019-04-06T04:07:39.860Z,8.17
2019-04-06T04:10:18.883Z,8.23
2019-04-06T04:12:51.651Z,8.10
2019-04-06T04:15:23.812Z,8.77
2019-04-06T04:17:56.085Z,9.03
2019-04-06T04:20:30.188Z,10.83
2019-04-06T04:23:02.399Z,10.70
2019-04-06T04:25:34.829Z,9.50
2019-04-06T04:28:07.115Z,11.47
2019-04-06T04:30:40.007Z,10.97
2019-04-06T04:33:12.449Z,12.80
2019-04-06T04:35:44.691Z,12.97
2019-04-06T04:38:16.775Z,13.20
2019-04-06T04:40:49.282Z,12.87
2019-04-06T04:43:21.418Z,13.60
2019-04-06T04:45:53.561Z,13.43
2019-04-06T04:48:25.706Z,13.27
2019-04-06T04:50:57.855Z,19.23
2019-04-06T04:53:30.046Z,14.03
2019-04-06T04:56:02.825Z,13.70
2019-04-06T04:58:35.103Z,14.47
2019-04-06T05:01:07.355Z,13.70
2019-04-06T05:03:39.432Z,14.90
2019-04-06T05:06:13.188Z,15.93
2019-04-06T05:08:45.343Z,16.37
2019-04-06T05:11:17.821Z,17.37
2019-04-06T05:13:50.476Z,39.60
2019-04-06T05:16:23.129Z,15.90
2019-04-06T05:18:55.336Z,18.43
2019-04-06T05:21:27.602Z,14.30
2019-04-06T05:24:00.310Z,14.93
2019-04-06T05:26:37.943Z,37.27
2019-04-06T05:29:07.205Z,41.80
2019-04-06T05:31:39.830Z,20.60
2019-04-06T05:34:12.404Z,15.53
2019-04-06T05:36:45.258Z,20.83
2019-04-06T05:39:17.670Z,79.17
2019-04-06T05:41:51.182Z,23.43
2019-04-06T05:44:23.893Z,24.50
2019-04-06T05:47:06.515Z,26.50
2019-04-06T05:49:39.647Z,19.70
2019-04-06T05:52:11.810Z,23.63
2019-04-06T05:54:44.471Z,26.90
2019-04-06T05:57:16.574Z,23.73
2019-04-06T05:59:48.725Z,24.93
2019-04-06T06:02:20.916Z,18.90
2019-04-06T06:04:54.278Z,18.53
2019-04-06T06:07:27.106Z,22.87
2019-04-06T06:09:59.848Z,24.57
2019-04-06T06:12:32.554Z,28.53
2019-04-06T06:15:05.318Z,18.73
2019-04-06T06:17:37.781Z,17.37
2019-04-06T06:20:10.941Z,16.83
2019-04-06T06:22:43.453Z,20.40
2019-04-06T06:25:16.295Z,25.90
2019-04-06T06:27:49.006Z,23.07
2019-04-06T06:30:21.360Z,23.23
2019-04-06T06:32:53.657Z,20.13
2019-04-06T06:35:25.889Z,20.00
2019-04-06T06:37:57.975Z,27.27
2019-04-06T06:40:30.067Z,26.70
2019-04-06T06:43:02.243Z,20.77
2019-04-06T06:45:34.383Z,18.50
2019-04-06T06:48:06.683Z,22.50
2019-04-06T06:50:38.761Z,16.60
2019-04-06T06:53:10.917Z,19.20
2019-04-06T06:55:43.419Z,16.40
2019-04-06T06:58:24.844Z,13.93
2019-04-06T07:00:49.720Z,12.00
2019-04-06T07:03:22.141Z,8.60
2019-04-06T07:05:54.403Z,7.53
2019-04-06T07:08:26.572Z,6.10
2019-04-06T07:10:58.610Z,5.53
2019-04-06T07:13:31.399Z,5.77
2019-04-06T07:16:03.878Z,9.50
2019-04-06T07:18:36.099Z,6.50
2019-04-06T07:21:08.641Z,17.73
2019-04-06T07:23:41.063Z,5.67
2019-04-06T07:26:13.590Z,4.63
2019-04-06T07:28:46.084Z,5.00
2019-04-06T07:31:18.433Z,4.67
2019-04-06T07:33:50.610Z,4.10
2019-04-06T07:36:23.407Z,4.53
2019-04-06T07:38:56.002Z,3.87
2019-04-06T07:41:28.651Z,4.30
2019-04-06T07:44:01.250Z,4.90
2019-04-06T07:46:33.797Z,3.97
2019-04-06T07:49:09.304Z,3.27
2019-04-06T07:51:40.880Z,3.73
2019-04-06T07:54:13.426Z,3.57
2019-04-06T07:56:45.923Z,3.27
2019-04-06T07:59:18.407Z,4.30
2019-04-06T08:01:50.439Z,6.20
2019-04-06T08:04:22.637Z,4.33
2019-04-06T08:06:54.863Z,6.70
2019-04-06T08:09:27.167Z,4.33
2019-04-06T08:11:59.359Z,4.50
2019-04-06T08:14:31.551Z,4.60
2019-04-06T08:17:03.650Z,6.30
2019-04-06T08:19:35.782Z,5.63
2019-04-06T08:22:07.933Z,5.07
2019-04-06T08:24:40.359Z,4.80
2019-04-06T08:27:12.821Z,5.13
2019-04-06T08:29:44.980Z,4.13
2019-04-06T08:32:17.104Z,4.87
2019-04-06T08:34:49.275Z,3.50
2019-04-06T08:37:21.411Z,5.73
2019-04-06T08:39:53.524Z,5.53
2019-04-06T08:42:25.987Z,5.57
2019-04-06T08:44:58.089Z,7.67
2019-04-06T08:47:30.359Z,3.30
2019-04-06T08:50:02.491Z,3.50
2019-04-06T08:52:34.637Z,4.40
2019-04-06T08:55:07.240Z,5.13
2019-04-06T08:57:39.447Z,5.30
2019-04-06T09:00:12.342Z,5.83
2019-04-06T09:02:44.569Z,4.70
2019-04-06T09:05:16.963Z,5.17
2019-04-06T09:07:49.161Z,5.63
2019-04-06T09:10:21.578Z,4.73
2019-04-06T09:12:53.757Z,5.03
2019-04-06T09:15:26.581Z,9.47
2019-04-06T09:17:58.958Z,4.40
2019-04-06T09:20:31.353Z,4.43
2019-04-06T09:23:03.597Z,5.10
2019-04-06T09:25:35.720Z,4.43
2019-04-06T09:28:07.784Z,4.60
2019-04-06T09:30:40.500Z,6.03
2019-04-06T09:33:12.937Z,4.07
2019-04-06T09:35:45.347Z,3.77
2019-04-06T09:38:20.957Z,4.00
2019-04-06T09:40:53.506Z,4.10
2019-04-06T09:43:25.978Z,2.77
2019-04-06T09:46:14.683Z,5.03
2019-04-06T09:49:12.004Z,3.13
2019-04-06T09:52:06.212Z,3.17
2019-04-06T09:54:47.393Z,4.53
2019-04-06T09:57:32.835Z,4.03
2019-04-06T10:00:31.017Z,4.80
2019-04-06T10:03:22.163Z,5.37
2019-04-06T10:06:13.029Z,5.27
2019-04-06T10:09:19.301Z,3.70
2019-04-06T10:12:10.391Z,3.83
2019-04-06T10:15:04.294Z,3.60
2019-04-06T10:17:55.139Z,4.17
2019-04-06T10:20:46.516Z,3.23
2019-04-06T10:23:37.416Z,2.65
2019-04-06T10:26:28.376Z,2.70
2019-04-06T10:29:18.200Z,2.93
2019-04-06T10:32:08.291Z,2.53
2019-04-06T10:34:52.953Z,2.73
2019-04-06T10:37:50.021Z,2.77
2019-04-06T10:40:41.197Z,2.60
2019-04-06T10:43:41.351Z,2.30
2019-04-06T10:46:31.127Z,3.53
2019-04-06T10:49:24.738Z,3.73
2019-04-06T10:52:18.433Z,2.40
2019-04-06T10:55:15.389Z,2.20
2019-04-06T10:58:06.778Z,2.17
2019-04-06T11:00:51.097Z,1.87
2019-04-06T11:03:42.119Z,2.77
2019-04-06T11:06:30.032Z,4.33
2019-04-06T11:09:17.911Z,2.67
2019-04-06T11:12:22.595Z,1.87
2019-04-06T11:15:00.596Z,2.40
2019-04-06T11:17:54.652Z,2.07
2019-04-06T11:20:48.389Z,4.20
2019-04-06T11:23:48.653Z,1.97
2019-04-06T11:26:34.232Z,1.83
2019-04-06T11:29:13.086Z,2.57
2019-04-06T11:32:22.054Z,18.20
2019-04-06T11:35:00.468Z,5.57
2019-04-06T11:37:46.723Z,3.47
2019-04-06T11:40:36.620Z,2.43
2019-04-06T11:43:27.603Z,2.53
2019-04-06T11:46:08.562Z,1.93
2019-04-06T11:49:06.808Z,1.70
2019-04-06T11:52:01.916Z,2.57
2019-04-06T11:55:02.568Z,2.97
2019-04-06T11:57:56.777Z,5.40
2019-04-06T12:00:41.615Z,4.63
2019-04-06T12:03:32.744Z,1.80
2019-04-06T12:06:24.160Z,4.43
2019-04-06T12:09:15.844Z,3.00
2019-04-06T12:12:07.463Z,4.23
2019-04-06T12:15:04.124Z,2.27
2019-04-06T12:17:54.912Z,3.33
2019-04-06T12:20:46.444Z,3.07
2019-04-06T12:23:40.906Z,2.10
2019-04-06T12:26:30.924Z,2.43
2019-04-06T12:29:25.532Z,1.77
2019-04-06T12:32:18.049Z,4.17
2019-04-06T12:35:05.328Z,2.50
2019-04-06T12:37:56.997Z,2.80
2019-04-06T12:40:57.828Z,1.90
2019-04-06T12:43:59.349Z,2.27
2019-04-06T12:46:49.791Z,2.30
2019-04-06T12:49:41.684Z,2.70
2019-04-06T12:52:31.726Z,4.10
2019-04-06T12:55:33.815Z,2.93
2019-04-06T12:58:34.761Z,3.17
2019-04-06T13:01:44.469Z,2.50
2019-04-06T13:04:48.338Z,3.30
2019-04-06T13:07:38.467Z,2.53
2019-04-06T13:10:25.285Z,6.10
2019-04-06T13:13:19.562Z,2.07
2019-04-06T13:15:59.904Z,2.77
2019-04-06T13:18:42.011Z,3.93
2019-04-06T13:21:53.054Z,3.60
2019-04-06T13:24:50.457Z,3.27
2019-04-06T13:27:49.362Z,1.80
2019-04-06T13:30:40.740Z,3.23
2019-04-06T13:33:33.074Z,2.00
2019-04-06T13:36:28.197Z,1.73
2019-04-06T13:39:13.243Z,1.90
2019-04-06T13:41:59.789Z,2.77
2019-04-06T13:44:43.534Z,2.27
2019-04-06T13:47:38.985Z,2.00
2019-04-06T13:50:29.641Z,3.87
2019-04-06T13:53:22.350Z,1.60
2019-04-06T13:56:12.240Z,3.73
2019-04-06T13:58:53.541Z,2.37
2019-04-06T14:01:41.579Z,2.17
2019-04-06T14:04:39.226Z,3.37
2019-04-06T14:07:43.871Z,4.23
2019-04-06T14:10:38.470Z,2.13
2019-04-06T14:13:32.759Z,2.43
2019-04-06T14:16:26.596Z,1.80
2019-04-06T14:19:17.064Z,2.43
2019-04-06T14:22:25.730Z,1.60
2019-04-06T14:25:26.481Z,1.57
2019-04-06T14:28:23.530Z,1.80
2019-04-06T14:31:24.420Z,2.40
2019-04-06T14:34:00.579Z,2.60
2019-04-06T14:36:51.016Z,1.47
2019-04-06T14:39:45.308Z,1.47
2019-04-06T14:42:37.515Z,3.07
2019-04-06T14:45:27.915Z,5.90
2019-04-06T14:48:13.554Z,3.17
2019-04-06T14:51:05.604Z,3.40
2019-04-06T14:53:43.991Z,12.83
2019-04-06T14:56:41.564Z,3.10
2019-04-06T14:59:36.106Z,9.00
2019-04-06T15:02:28.364Z,8.30
2019-04-06T15:05:19.897Z,6.20
2019-04-06T15:08:08.112Z,6.03
2019-04-06T15:10:51.997Z,6.03
2019-04-06T15:13:39.740Z,5.03
2019-04-06T15:16:37.849Z,2.60
2019-04-06T15:19:30.223Z,3.53
2019-04-06T15:22:21.881Z,2.43
2019-04-06T15:25:12.675Z,3.37
2019-04-06T15:28:05.295Z,2.20
2019-04-06T15:31:08.128Z,3.43
2019-04-06T15:34:06.395Z,2.40
2019-04-06T15:36:57.987Z,5.73
2019-04-06T15:39:52.480Z,3.43
2019-04-06T15:42:44.499Z,3.67
2019-04-06T15:45:50.932Z,3.27
2019-04-06T15:48:52.702Z,3.87
2019-04-06T15:51:37.545Z,3.20
2019-04-06T15:54:29.720Z,4.17
2019-04-06T15:57:19.672Z,4.80
2019-04-06T16:00:16.800Z,7.87
2019-04-06T16:03:16.911Z,5.90
2019-04-06T16:06:10.669Z,4.33
2019-04-06T16:09:04.891Z,5.07
2019-04-06T16:11:54.827Z,4.80
2019-04-06T16:14:36.923Z,7.93
2019-04-06T16:17:31.244Z,4.60
2019-04-06T16:20:21.282Z,3.87
2019-04-06T16:23:10.255Z,8.33
2019-04-06T16:26:04.893Z,6.37
2019-04-06T16:28:59.318Z,9.33
2019-04-06T16:31:49.135Z,17.07
2019-04-06T16:34:37.120Z,2.97
2019-04-06T16:37:27.556Z,5.67
2019-04-06T16:40:25.543Z,16.80
2019-04-06T16:43:05.403Z,4.03
2019-04-06T16:45:59.545Z,4.87
2019-04-06T16:49:09.367Z,6.20
2019-04-06T16:52:13.136Z,4.80
2019-04-06T16:55:01.379Z,8.37
2019-04-06T16:57:56.276Z,5.47
2019-04-06T17:00:46.593Z,5.30
2019-04-06T17:03:39.090Z,4.37
2019-04-06T17:06:33.246Z,4.30
2019-04-06T17:09:34.216Z,4.97
2019-04-06T17:12:27.793Z,4.73
2019-04-06T17:15:10.661Z,6.40
2019-04-06T17:18:00.701Z,6.63
2019-04-06T17:20:49.942Z,4.50
2019-04-06T17:23:48.239Z,5.27
2019-04-06T17:26:34.378Z,4.83
2019-04-06T17:29:29.099Z,7.53
2019-04-06T17:32:09.529Z,9.27
2019-04-06T17:35:01.379Z,5.90
2019-04-06T17:37:54.003Z,6.67
2019-04-06T17:40:33.726Z,6.83
2019-04-06T17:43:28.379Z,5.87
2019-04-06T17:46:29.084Z,8.37
2019-04-06T17:49:19.391Z,8.57
2019-04-06T17:52:02.412Z,9.60
2019-04-06T17:54:43.426Z,11.37
2019-04-06T17:57:52.938Z,8.90
2019-04-06T18:00:56.231Z,11.53
2019-04-06T18:03:49.306Z,18.50
2019-04-06T18:06:40.551Z,16.40
2019-04-06T18:09:22.707Z,11.13
2019-04-06T18:12:11.401Z,11.03
2019-04-06T18:14:44.943Z,11.57
2019-04-06T18:17:17.805Z,15.43
2019-04-06T18:19:50.729Z,12.17
2019-04-06T18:22:23.321Z,10.77
2019-04-06T18:24:56.166Z,14.93
2019-04-06T18:27:28.750Z,11.50
2019-04-06T18:30:01.650Z,14.87
2019-04-06T18:33:02.212Z,12.90
2019-04-06T18:35:34.022Z,10.77
2019-04-06T18:38:31.681Z,14.13
2019-04-06T18:41:04.982Z,20.00
2019-04-06T18:43:38.298Z,23.93
2019-04-06T18:46:11.633Z,24.63
2019-04-06T18:48:44.376Z,19.53
2019-04-06T18:51:17.003Z,22.17
2019-04-06T18:53:49.397Z,23.63
2019-04-06T18:56:22.010Z,21.93
2019-04-06T18:58:54.767Z,26.20
2019-04-06T19:01:27.892Z,18.60
2019-04-06T19:04:00.413Z,12.90
2019-04-06T19:06:33.784Z,18.97
2019-04-06T19:09:20.519Z,16.80
2019-04-06T19:11:53.628Z,23.47
2019-04-06T19:14:18.229Z,21.70
2019-04-06T19:16:51.456Z,18.97
2019-04-06T19:19:24.789Z,15.63
2019-04-06T19:21:57.835Z,13.90
2019-04-06T19:24:30.627Z,12.40
2019-04-06T19:27:03.446Z,11.07
2019-04-06T19:29:36.612Z,10.80
2019-04-06T19:32:09.437Z,10.27
2019-04-06T19:34:42.130Z,11.03
2019-04-06T19:37:14.817Z,11.00
2019-04-06T19:39:47.770Z,11.17
2019-04-06T19:42:20.483Z,10.20
2019-04-06T19:44:53.617Z,11.53
2019-04-06T19:47:26.529Z,10.83
2019-04-06T19:49:59.381Z,10.37
2019-04-06T19:52:32.685Z,11.67
2019-04-06T19:55:05.625Z,9.70
2019-04-06T19:57:38.625Z,9.87
2019-04-06T20:00:12.931Z,10.20
2019-04-06T20:02:45.877Z,10.63
2019-04-06T20:05:18.522Z,9.57
2019-04-06T20:07:51.452Z,9.83
2019-04-06T20:10:24.297Z,9.70
2019-04-06T20:12:57.203Z,8.70
2019-04-06T20:15:29.972Z,9.30
2019-04-06T20:18:02.700Z,10.40
2019-04-06T20:20:35.425Z,9.77
2019-04-06T20:23:08.477Z,9.83
2019-04-06T20:25:41.948Z,9.70
2019-04-06T20:28:15.909Z,11.77
2019-04-06T20:30:48.770Z,10.53
2019-04-06T20:33:21.520Z,9.73
2019-04-06T20:35:54.501Z,10.23
2019-04-06T20:38:27.608Z,10.60
2019-04-06T20:41:00.661Z,11.07
2019-04-06T20:43:33.212Z,10.67
2019-04-06T20:46:06.392Z,12.57
2019-04-06T20:48:39.308Z,13.10
2019-04-06T20:51:11.944Z,10.73
2019-04-06T20:53:44.634Z,11.80
2019-04-06T20:56:17.604Z,11.40
2019-04-06T20:58:50.359Z,11.47
2019-04-06T21:01:23.275Z,10.67
2019-04-06T21:04:01.046Z,11.37
2019-04-06T21:06:30.241Z,11.60
2019-04-06T21:09:04.770Z,10.80
2019-04-06T21:11:39.506Z,11.37
2019-04-06T21:14:12.308Z,11.20
2019-04-06T21:16:45.637Z,12.93
2019-04-06T21:19:19.309Z,12.30
2019-04-06T21:21:52.097Z,11.97
2019-04-06T21:24:24.730Z,13.17
2019-04-06T21:26:57.377Z,12.07
2019-04-06T21:29:30.746Z,24.13
2019-04-06T21:32:03.457Z,16.60
2019-04-06T21:34:36.160Z,12.83
2019-04-06T21:37:08.777Z,12.37
2019-04-06T21:39:41.711Z,11.83
2019-04-06T21:42:14.744Z,13.43
2019-04-06T21:44:48.034Z,13.10
2019-04-06T21:47:20.874Z,12.47
2019-04-06T21:49:53.699Z,12.27
2019-04-06T21:52:26.440Z,10.00
2019-04-06T21:54:59.671Z,11.60
2019-04-06T21:57:32.184Z,10.90
2019-04-06T22:00:05.768Z,11.20
2019-04-06T22:02:39.222Z,11.10
2019-04-06T22:05:12.334Z,12.57
2019-04-06T22:07:49.510Z,11.90
2019-04-06T22:10:20.870Z,11.77
2019-04-06T22:12:53.900Z,12.70
2019-04-06T22:15:26.514Z,11.90
2019-04-06T22:17:59.010Z,11.50
2019-04-06T22:20:31.778Z,12.83
2019-04-06T22:23:05.101Z,13.27
2019-04-06T22:25:37.688Z,12.67
2019-04-06T22:28:10.910Z,11.43
2019-04-06T22:30:43.726Z,12.40
2019-04-06T22:33:16.598Z,13.23
2019-04-06T22:35:49.290Z,12.27
2019-04-06T22:38:22.699Z,13.77
2019-04-06T22:40:55.614Z,16.50
2019-04-06T22:43:28.315Z,14.60
2019-04-06T22:46:00.930Z,13.90
2019-04-06T22:48:35.041Z,14.03
2019-04-06T22:51:08.475Z,13.87
2019-04-06T22:53:41.427Z,14.03
2019-04-06T22:56:14.952Z,12.60
2019-04-06T22:58:47.636Z,13.60
2019-04-06T23:01:22.144Z,13.00
2019-04-06T23:04:13.336Z,13.07
2019-04-06T23:06:52.457Z,13.00
2019-04-06T23:09:25.797Z,13.77
2019-04-06T23:11:59.576Z,13.83
2019-04-06T23:14:32.807Z,14.03
2019-04-06T23:17:05.659Z,14.10
2019-04-06T23:19:38.468Z,14.30
2019-04-06T23:22:12.486Z,14.97
2019-04-06T23:24:46.821Z,15.43
2019-04-06T23:27:20.428Z,13.90
2019-04-06T23:29:55.199Z,15.57
2019-04-06T23:32:28.016Z,13.60
2019-04-06T23:35:02.311Z,16.13
2019-04-06T23:37:35.521Z,15.83
2019-04-06T23:40:08.788Z,15.90
2019-04-06T23:42:41.943Z,15.63
2019-04-06T23:45:15.153Z,17.10
2019-04-06T23:47:48.320Z,18.73
2019-04-06T23:50:21.451Z,16.10
2019-04-06T23:52:54.273Z,16.13
2019-04-06T23:55:27.143Z,17.97
2019-04-06T23:58:00.070Z,18.63
